createdAt,value
2022-12-23T00:00:19.604Z,2.03
2022-12-23T00:02:46.360Z,1.73
2022-12-23T00:05:13.146Z,2.05
2022-12-23T00:07:39.395Z,1.50
2022-12-23T00:10:05.831Z,1.35
2022-12-23T00:12:50.749Z,1.30
2022-12-23T00:15:17.065Z,2.20
2022-12-23T00:17:44.778Z,1.85
2022-12-23T00:20:12.556Z,1.77
2022-12-23T00:22:57.656Z,1.60
2022-12-23T00:25:40.177Z,1.60
2022-12-23T00:28:10.183Z,1.38
2022-12-23T00:30:36.517Z,1.63
2022-12-23T00:33:03.554Z,1.40
2022-12-23T00:35:31.605Z,2.17
2022-12-23T00:37:57.901Z,1.40
2022-12-23T00:40:43.024Z,1.63
2022-12-23T00:43:09.341Z,1.25
2022-12-23T00:45:35.697Z,1.20
2022-12-23T00:48:20.630Z,1.30
2022-12-23T00:50:46.927Z,1.33
2022-12-23T00:53:13.188Z,1.48
2022-12-23T00:55:39.498Z,1.60
2022-12-23T00:58:05.748Z,1.50
2022-12-23T01:00:50.547Z,1.67
2022-12-23T01:03:36.065Z,1.77
2022-12-23T01:06:02.897Z,1.42
2022-12-23T01:08:29.362Z,1.50
2022-12-23T01:10:55.654Z,1.38
2022-12-23T01:13:22.020Z,1.73
2022-12-23T01:15:48.293Z,1.90
2022-12-23T01:18:14.533Z,1.58
2022-12-23T01:20:41.226Z,1.80
2022-12-23T01:23:07.598Z,1.58
2022-12-23T01:25:33.834Z,1.73
2022-12-23T01:28:00.128Z,1.50
2022-12-23T01:30:26.696Z,1.73
2022-12-23T01:32:53.085Z,1.63
2022-12-23T01:35:19.329Z,1.50
2022-12-23T01:37:45.565Z,1.70
2022-12-23T01:40:11.894Z,1.45
2022-12-23T01:42:44.348Z,1.50
2022-12-23T01:45:14.949Z,1.58
2022-12-23T01:48:01.496Z,1.40
2022-12-23T01:50:30.556Z,1.25
2022-12-23T01:53:09.142Z,1.38
2022-12-23T01:55:41.296Z,1.45
2022-12-23T01:58:12.388Z,1.50
2022-12-23T02:00:58.515Z,1.23
2022-12-23T02:03:43.378Z,1.58
2022-12-23T02:06:29.560Z,1.20
2022-12-23T02:09:14.587Z,1.40
2022-12-23T02:12:01.100Z,1.45
2022-12-23T02:15:11.646Z,1.20
2022-12-23T02:17:46.888Z,1.73
2022-12-23T02:20:13.111Z,1.70
2022-12-23T02:22:58.324Z,1.65
2022-12-23T02:25:35.479Z,1.75
2022-12-23T02:28:04.520Z,1.90
2022-12-23T02:30:45.898Z,1.60
2022-12-23T02:33:20.291Z,1.80
2022-12-23T02:35:56.431Z,2.25
2022-12-23T02:38:58.095Z,2.30
2022-12-23T02:41:38.665Z,1.83
2022-12-23T02:44:11.210Z,1.65
2022-12-23T02:46:41.757Z,1.92
2022-12-23T02:49:11.950Z,1.80
2022-12-23T02:51:40.769Z,1.70
2022-12-23T02:54:09.039Z,1.73
2022-12-23T02:56:38.053Z,2.10
2022-12-23T02:59:06.977Z,1.88
2022-12-23T03:01:33.713Z,1.60
2022-12-23T03:04:00.288Z,1.77
2022-12-23T03:06:28.400Z,1.60
2022-12-23T03:08:55.987Z,2.03
2022-12-23T03:11:23.949Z,1.90
2022-12-23T03:14:15.446Z,1.70
2022-12-23T03:16:41.743Z,2.00
2022-12-23T03:19:13.835Z,1.85
2022-12-23T03:21:40.077Z,1.75
2022-12-23T03:24:17.449Z,1.60
2022-12-23T03:26:57.404Z,2.13
2022-12-23T03:29:29.175Z,1.65
2022-12-23T03:31:57.549Z,1.60
2022-12-23T03:34:26.292Z,1.40
2022-12-23T03:36:54.554Z,1.90
2022-12-23T03:39:23.272Z,1.52
2022-12-23T03:41:55.578Z,1.42
2022-12-23T03:44:26.639Z,1.80
2022-12-23T03:47:02.892Z,1.48
2022-12-23T03:49:32.604Z,1.70
2022-12-23T03:52:20.833Z,1.40
2022-12-23T03:54:55.274Z,1.98
2022-12-23T03:57:30.397Z,1.70
2022-12-23T03:59:56.857Z,1.40
2022-12-23T04:02:32.113Z,1.38
2022-12-23T04:05:24.641Z,1.30
2022-12-23T04:07:53.777Z,1.80
2022-12-23T04:10:21.469Z,1.60
2022-12-23T04:12:47.767Z,1.60
2022-12-23T04:15:18.472Z,1.30
2022-12-23T04:17:44.760Z,1.83
2022-12-23T04:20:11.131Z,1.90
2022-12-23T04:22:37.483Z,1.30
2022-12-23T04:25:03.897Z,1.40
2022-12-23T04:27:30.195Z,1.10
2022-12-23T04:29:56.533Z,1.40
2022-12-23T04:32:22.942Z,1.27
2022-12-23T04:34:49.251Z,1.52
2022-12-23T04:37:15.559Z,2.03
2022-12-23T04:39:41.834Z,1.05
2022-12-23T04:42:08.217Z,1.20
2022-12-23T04:44:34.501Z,1.30
2022-12-23T04:47:00.839Z,1.65
2022-12-23T04:49:27.166Z,1.40
2022-12-23T04:51:53.424Z,0.95
2022-12-23T04:54:19.712Z,1.17
2022-12-23T04:56:45.961Z,1.27
2022-12-23T04:59:12.273Z,1.23
2022-12-23T05:01:38.791Z,1.42
2022-12-23T05:04:05.362Z,1.83
2022-12-23T05:06:31.645Z,1.30
2022-12-23T05:08:57.945Z,1.23
2022-12-23T05:11:24.342Z,1.08
2022-12-23T05:13:50.644Z,1.50
2022-12-23T05:16:17.025Z,1.30
2022-12-23T05:18:43.354Z,1.05
2022-12-23T05:21:09.688Z,1.27
2022-12-23T05:23:36.004Z,0.95
2022-12-23T05:26:02.403Z,1.63
2022-12-23T05:28:28.965Z,1.13
2022-12-23T05:30:59.190Z,1.10
2022-12-23T05:33:25.819Z,1.40
2022-12-23T05:35:52.149Z,1.50
2022-12-23T05:38:18.490Z,1.02
2022-12-23T05:40:44.743Z,1.25
2022-12-23T05:43:11.076Z,1.40
2022-12-23T05:45:37.540Z,1.38
2022-12-23T05:48:03.959Z,1.23
2022-12-23T05:50:30.227Z,1.00
2022-12-23T05:52:57.662Z,1.42
2022-12-23T05:55:24.576Z,1.33
2022-12-23T05:58:01.289Z,1.50
2022-12-23T06:00:28.128Z,1.58
2022-12-23T06:02:54.808Z,1.20
2022-12-23T06:05:21.944Z,1.48
2022-12-23T06:07:48.636Z,1.13
2022-12-23T06:10:15.048Z,1.48
2022-12-23T06:12:41.477Z,1.63
2022-12-23T06:15:08.478Z,1.65
2022-12-23T06:17:35.008Z,1.95
2022-12-23T06:20:01.535Z,1.50
2022-12-23T06:22:28.085Z,1.67
2022-12-23T06:24:54.515Z,1.58
2022-12-23T06:27:20.962Z,1.75
2022-12-23T06:29:48.205Z,1.75
2022-12-23T06:32:14.926Z,1.50
2022-12-23T06:34:41.574Z,1.40
2022-12-23T06:37:08.327Z,1.45
2022-12-23T06:39:35.269Z,1.42
2022-12-23T06:42:01.731Z,2.15
2022-12-23T06:44:28.101Z,1.70
2022-12-23T06:46:54.543Z,2.55
2022-12-23T06:49:20.957Z,1.80
2022-12-23T06:51:47.327Z,1.70
2022-12-23T06:54:13.900Z,2.00
2022-12-23T06:56:40.519Z,1.50
2022-12-23T06:59:06.967Z,1.90
2022-12-23T07:01:33.603Z,2.08
2022-12-23T07:04:00.113Z,1.63
2022-12-23T07:06:26.557Z,1.80
2022-12-23T07:08:52.932Z,1.80
2022-12-23T07:11:19.362Z,1.75
2022-12-23T07:13:46.699Z,2.10
2022-12-23T07:16:13.148Z,1.30
2022-12-23T07:18:39.650Z,1.95
2022-12-23T07:21:10.608Z,1.92
2022-12-23T07:23:44.417Z,2.92
2022-12-23T07:26:10.865Z,2.78
2022-12-23T07:28:37.478Z,2.70
2022-12-23T07:31:06.306Z,2.40
2022-12-23T07:33:32.685Z,2.60
2022-12-23T07:35:59.647Z,2.47
2022-12-23T07:38:26.382Z,3.45
2022-12-23T07:40:52.827Z,3.13
2022-12-23T07:43:19.192Z,3.17
2022-12-23T07:45:45.676Z,3.85
2022-12-23T07:48:12.079Z,3.72
2022-12-23T07:50:38.491Z,3.88
2022-12-23T07:53:04.902Z,3.90
2022-12-23T07:55:31.387Z,4.45
2022-12-23T07:57:57.844Z,4.03
2022-12-23T08:00:24.263Z,3.97
2022-12-23T08:02:50.791Z,3.45
2022-12-23T08:05:17.533Z,3.60
2022-12-23T08:07:45.259Z,3.88
2022-12-23T08:10:12.554Z,3.47
2022-12-23T08:12:39.014Z,3.45
2022-12-23T08:15:06.245Z,3.00
2022-12-23T08:17:32.763Z,3.42
2022-12-23T08:19:59.146Z,3.03
2022-12-23T08:22:25.534Z,2.97
2022-12-23T08:24:52.601Z,2.90
2022-12-23T08:27:19.447Z,2.72
2022-12-23T08:29:45.924Z,3.22
2022-12-23T08:32:12.323Z,2.83
2022-12-23T08:34:38.843Z,2.88
2022-12-23T08:37:05.267Z,2.35
2022-12-23T08:39:31.962Z,2.58
2022-12-23T08:41:58.431Z,2.35
2022-12-23T08:44:27.769Z,2.17
2022-12-23T08:46:54.956Z,2.97
2022-12-23T08:49:21.947Z,2.35
2022-12-23T08:51:49.127Z,1.90
2022-12-23T08:54:15.941Z,2.47
2022-12-23T08:56:42.464Z,2.15
2022-12-23T08:59:19.156Z,2.30
2022-12-23T09:01:47.158Z,2.40
2022-12-23T09:04:13.714Z,2.70
2022-12-23T09:06:42.003Z,2.45
2022-12-23T09:09:10.983Z,2.42
2022-12-23T09:11:37.809Z,2.13
2022-12-23T09:14:04.884Z,2.67
2022-12-23T09:16:32.042Z,2.08
2022-12-23T09:18:58.588Z,2.28
2022-12-23T09:21:25.581Z,2.58
2022-12-23T09:23:52.318Z,2.05
2022-12-23T09:26:22.601Z,2.88
2022-12-23T09:28:49.130Z,2.10
2022-12-23T09:31:16.321Z,2.35
2022-12-23T09:33:42.996Z,2.10
2022-12-23T09:36:09.450Z,2.40
2022-12-23T09:38:36.276Z,2.22
2022-12-23T09:41:10.105Z,2.05
2022-12-23T09:43:52.977Z,2.60
2022-12-23T09:46:22.861Z,2.15
2022-12-23T09:49:05.852Z,2.30
2022-12-23T09:51:33.131Z,2.60
2022-12-23T09:54:02.449Z,2.10
2022-12-23T09:56:41.833Z,2.40
2022-12-23T09:59:32.869Z,1.90
2022-12-23T10:02:18.270Z,2.30
2022-12-23T10:04:57.391Z,2.10
2022-12-23T10:07:31.724Z,2.13
2022-12-23T10:10:03.154Z,2.08
2022-12-23T10:12:40.139Z,1.83
2022-12-23T10:15:19.148Z,2.22
2022-12-23T10:17:47.178Z,2.35
2022-12-23T10:20:19.454Z,2.00
2022-12-23T10:22:47.145Z,2.25
2022-12-23T10:25:36.600Z,2.00
2022-12-23T10:28:03.438Z,2.20
2022-12-23T10:33:32.417Z,2.30
2022-12-23T10:36:15.548Z,2.13
2022-12-23T10:38:58.993Z,2.20
2022-12-23T10:41:38.132Z,1.98
2022-12-23T10:44:40.267Z,1.95
2022-12-23T10:47:12.595Z,2.10
2022-12-23T10:49:51.350Z,2.08
2022-12-23T10:52:21.264Z,2.42
2022-12-23T10:54:49.253Z,1.75
2022-12-23T10:57:18.595Z,1.70
2022-12-23T10:59:45.319Z,2.15
2022-12-23T11:02:11.798Z,2.22
2022-12-23T11:04:45.255Z,1.85
2022-12-23T11:10:13.121Z,2.00
2022-12-23T11:12:42.833Z,2.22
2022-12-23T11:15:40.990Z,2.17
2022-12-23T11:18:18.206Z,1.75
2022-12-23T11:20:46.716Z,2.30
2022-12-23T11:23:25.456Z,2.05
2022-12-23T11:26:06.998Z,2.00
2022-12-23T11:28:40.753Z,1.80
2022-12-23T11:31:11.572Z,2.10
2022-12-23T11:33:56.005Z,2.10
2022-12-23T11:36:25.927Z,2.03
2022-12-23T11:38:53.944Z,1.98
2022-12-23T11:41:23.935Z,1.75
2022-12-23T11:44:03.728Z,2.08
2022-12-23T11:46:32.626Z,2.13
2022-12-23T11:49:31.445Z,1.92
2022-12-23T11:52:01.748Z,2.15
2022-12-23T11:54:29.212Z,2.03
2022-12-23T11:56:56.420Z,1.88
2022-12-23T11:59:43.367Z,2.83
2022-12-23T12:04:42.590Z,2.30
2022-12-23T12:07:13.417Z,2.33
2022-12-23T12:09:41.959Z,2.38
2022-12-23T12:12:16.874Z,2.35
2022-12-23T12:14:49.618Z,2.15
2022-12-23T12:17:30.979Z,2.30
2022-12-23T12:20:10.800Z,2.67
2022-12-23T12:22:40.339Z,2.67
2022-12-23T12:25:17.829Z,2.50
2022-12-23T12:27:53.138Z,2.60
2022-12-23T12:30:21.238Z,2.40
2022-12-23T12:33:00.998Z,2.05
2022-12-23T12:35:33.282Z,2.47
2022-12-23T12:38:06.986Z,2.40
2022-12-23T12:40:43.416Z,2.55
2022-12-23T12:46:26.867Z,2.20
2022-12-23T12:48:56.297Z,2.38
2022-12-23T12:51:34.780Z,2.15
2022-12-23T12:54:11.386Z,2.20
2022-12-23T12:56:46.320Z,2.15
2022-12-23T12:59:22.347Z,2.30
2022-12-23T13:02:29.423Z,2.40
2022-12-23T13:05:33.644Z,2.60
2022-12-23T13:08:15.312Z,2.28
2022-12-23T13:10:51.482Z,2.28
2022-12-23T13:13:24.148Z,2.22
2022-12-23T13:16:05.262Z,2.58
2022-12-23T13:18:31.662Z,2.20
2022-12-23T13:21:19.927Z,1.88
2022-12-23T13:24:06.155Z,2.03
2022-12-23T13:26:39.190Z,2.00
2022-12-23T13:29:33.656Z,1.95
2022-12-23T13:32:40.343Z,2.03
2022-12-23T13:35:18.914Z,1.90
2022-12-23T13:37:45.214Z,2.10
2022-12-23T13:40:14.550Z,1.90
2022-12-23T13:42:48.102Z,1.67
2022-12-23T13:45:17.987Z,1.90
2022-12-23T13:48:26.495Z,1.52
2022-12-23T13:51:15.179Z,1.85
2022-12-23T13:54:12.791Z,2.10
2022-12-23T13:56:52.768Z,1.73
2022-12-23T13:59:19.221Z,2.08
2022-12-23T14:01:52.499Z,1.77
2022-12-23T14:04:58.997Z,1.60
2022-12-23T14:07:28.251Z,1.90
2022-12-23T14:09:57.874Z,2.00
2022-12-23T14:12:31.508Z,1.88
2022-12-23T14:15:25.669Z,1.67
2022-12-23T14:18:04.331Z,1.33
2022-12-23T14:20:51.549Z,1.67
2022-12-23T14:23:46.008Z,1.60
2022-12-23T14:26:31.121Z,1.30
2022-12-23T14:29:26.037Z,1.60
2022-12-23T14:31:58.278Z,1.83
2022-12-23T14:34:33.665Z,1.63
2022-12-23T14:37:21.791Z,1.67
2022-12-23T14:39:49.066Z,1.85
2022-12-23T14:42:33.111Z,1.60
2022-12-23T14:45:28.128Z,1.80
2022-12-23T14:47:54.673Z,1.60
2022-12-23T14:50:33.522Z,1.70
2022-12-23T14:53:02.298Z,1.50
2022-12-23T14:55:31.226Z,1.63
2022-12-23T14:58:13.145Z,1.92
2022-12-23T15:00:47.264Z,1.40
2022-12-23T15:03:14.542Z,1.40
2022-12-23T15:05:42.280Z,1.70
2022-12-23T15:08:42.924Z,1.30
2022-12-23T15:11:18.396Z,1.10
2022-12-23T15:13:45.061Z,1.27
2022-12-23T15:16:17.705Z,1.20
2022-12-23T15:18:59.677Z,1.45
2022-12-23T15:21:29.287Z,1.17
2022-12-23T15:23:55.974Z,1.25
2022-12-23T15:26:30.376Z,1.17
2022-12-23T15:28:58.860Z,1.10
2022-12-23T15:31:28.490Z,1.20
2022-12-23T15:34:05.230Z,0.88
2022-12-23T15:36:37.603Z,0.95
2022-12-23T15:39:15.515Z,1.20
2022-12-23T15:41:44.204Z,0.93
2022-12-23T15:44:15.547Z,1.00
2022-12-23T15:46:42.381Z,1.13
2022-12-23T15:49:11.563Z,0.90
2022-12-23T15:54:34.623Z,1.02
2022-12-23T15:57:03.301Z,0.88
2022-12-23T15:59:36.381Z,1.10
2022-12-23T16:05:38.152Z,0.75
2022-12-23T16:08:13.932Z,0.90
2022-12-23T16:10:41.582Z,0.70
2022-12-23T16:13:19.240Z,0.90
2022-12-23T16:15:46.429Z,1.15
2022-12-23T16:18:29.878Z,0.90
2022-12-23T16:21:00.760Z,0.90
2022-12-23T16:23:35.985Z,0.90
2022-12-23T16:26:03.873Z,0.85
2022-12-23T16:28:38.941Z,0.82
2022-12-23T16:31:07.277Z,0.88
2022-12-23T16:33:38.643Z,1.08
2022-12-23T16:36:27.575Z,0.80
2022-12-23T16:39:02.265Z,0.95
2022-12-23T16:41:28.677Z,0.70
2022-12-23T16:43:55.022Z,1.00
2022-12-23T16:46:23.342Z,1.00
2022-12-23T16:48:52.970Z,1.17
2022-12-23T16:51:22.836Z,1.50
2022-12-23T16:53:50.740Z,0.88
2022-12-23T16:56:19.698Z,0.93
2022-12-23T16:58:46.486Z,0.98
2022-12-23T17:01:21.859Z,0.80
2022-12-23T17:03:49.033Z,1.05
2022-12-23T17:06:17.377Z,1.08
2022-12-23T17:08:44.171Z,1.08
2022-12-23T17:11:21.414Z,1.35
2022-12-23T17:13:47.842Z,1.02
2022-12-23T17:16:19.392Z,1.10
2022-12-23T17:18:50.526Z,0.95
2022-12-23T17:21:21.731Z,1.30
2022-12-23T17:23:48.970Z,1.38
2022-12-23T17:26:15.509Z,1.50
2022-12-23T17:28:42.006Z,2.10
2022-12-23T17:31:13.994Z,1.35
2022-12-23T17:33:42.086Z,1.55
2022-12-23T17:36:10.976Z,1.40
2022-12-23T17:38:37.597Z,1.63
2022-12-23T17:41:04.442Z,1.65
2022-12-23T17:43:30.831Z,1.30
2022-12-23T17:45:57.296Z,1.48
2022-12-23T17:48:28.139Z,1.60
2022-12-23T17:50:58.241Z,1.88
2022-12-23T17:53:24.634Z,2.03
2022-12-23T17:55:51.068Z,1.98
2022-12-23T17:58:17.486Z,1.80
2022-12-23T18:00:43.953Z,1.70
2022-12-23T18:03:22.491Z,1.92
2022-12-23T18:05:49.426Z,2.08
2022-12-23T18:08:16.857Z,1.77
2022-12-23T18:10:44.306Z,2.17
2022-12-23T18:13:17.352Z,2.30
2022-12-23T18:15:44.478Z,2.28
2022-12-23T18:18:20.471Z,1.98
2022-12-23T18:20:56.663Z,1.90
2022-12-23T18:23:31.307Z,2.42
2022-12-23T18:25:58.402Z,2.25
2022-12-23T18:28:25.833Z,2.50
2022-12-23T18:30:55.521Z,2.25
2022-12-23T18:33:22.089Z,2.10
2022-12-23T18:35:49.666Z,2.60
2022-12-23T18:38:17.323Z,3.15
2022-12-23T18:40:44.344Z,2.65
2022-12-23T18:43:22.645Z,2.90
2022-12-23T18:45:53.224Z,2.80
2022-12-23T18:48:21.208Z,2.83
2022-12-23T18:50:47.763Z,2.55
2022-12-23T18:53:25.205Z,2.72
2022-12-23T18:55:53.362Z,3.63
2022-12-23T18:58:20.588Z,3.78
2022-12-23T19:00:48.404Z,3.20
2022-12-23T19:03:22.964Z,3.20
2022-12-23T19:05:50.890Z,3.33
2022-12-23T19:08:25.476Z,4.07
2022-12-23T19:10:53.496Z,3.05
2022-12-23T19:13:20.063Z,3.78
2022-12-23T19:15:46.714Z,4.03
2022-12-23T19:18:15.727Z,4.22
2022-12-23T19:20:43.469Z,3.17
2022-12-23T19:23:10.981Z,3.10
2022-12-23T19:25:41.312Z,3.90
2022-12-23T19:28:08.069Z,2.70
2022-12-23T19:30:34.620Z,3.38
2022-12-23T19:33:01.077Z,3.53
2022-12-23T19:35:27.671Z,3.63
2022-12-23T19:37:54.102Z,2.97
2022-12-23T19:40:20.604Z,3.30
2022-12-23T19:42:46.999Z,3.17
2022-12-23T19:45:13.460Z,2.70
2022-12-23T19:47:39.926Z,3.42
2022-12-23T19:50:07.625Z,2.30
2022-12-23T19:52:35.065Z,3.10
2022-12-23T19:55:01.586Z,2.75
2022-12-23T19:57:28.390Z,2.90
2022-12-23T19:59:54.863Z,2.90
2022-12-23T20:02:23.295Z,3.22
2022-12-23T20:04:49.946Z,3.55
2022-12-23T20:07:16.398Z,2.75
2022-12-23T20:09:42.816Z,2.58
2022-12-23T20:12:09.165Z,2.88
2022-12-23T20:14:35.874Z,2.88
2022-12-23T20:17:02.577Z,3.35
2022-12-23T20:19:29.086Z,2.92
2022-12-23T20:21:55.520Z,3.83
2022-12-23T20:24:21.943Z,2.80
2022-12-23T20:26:48.296Z,2.47
2022-12-23T20:29:14.873Z,2.60
2022-12-23T20:31:41.766Z,3.28
2022-12-23T20:34:13.901Z,3.17
2022-12-23T20:36:40.399Z,2.95
2022-12-23T20:39:06.957Z,3.72
2022-12-23T20:41:33.812Z,3.47
2022-12-23T20:44:33.265Z,3.00
2022-12-23T20:46:46.932Z,3.25
2022-12-23T20:49:13.373Z,3.55
2022-12-23T20:51:39.723Z,3.53
2022-12-23T20:54:06.099Z,2.75
2022-12-23T20:56:32.507Z,2.83
2022-12-23T20:59:00.057Z,3.55
2022-12-23T21:01:35.086Z,3.15
2022-12-23T21:04:04.966Z,2.83
2022-12-23T21:06:32.665Z,3.25
2022-12-23T21:09:00.064Z,3.13
2022-12-23T21:11:36.655Z,2.45
2022-12-23T21:14:06.816Z,3.33
2022-12-23T21:16:35.397Z,2.70
2022-12-23T21:19:01.945Z,2.90
2022-12-23T21:21:31.107Z,2.95
2022-12-23T21:24:02.141Z,2.78
2022-12-23T21:26:30.701Z,2.85
2022-12-23T21:29:01.896Z,2.83
2022-12-23T21:31:30.754Z,2.55
2022-12-23T21:33:58.241Z,3.13
2022-12-23T21:36:27.695Z,2.97
2022-12-23T21:38:54.635Z,2.42
2022-12-23T21:41:29.681Z,3.17
2022-12-23T21:43:57.645Z,2.70
2022-12-23T21:46:24.775Z,3.45
2022-12-23T21:48:51.598Z,3.17
2022-12-23T21:51:23.956Z,2.92
2022-12-23T21:53:53.890Z,3.05
2022-12-23T21:56:22.226Z,3.65
2022-12-23T21:58:48.640Z,2.30
2022-12-23T22:01:20.333Z,2.50
2022-12-23T22:03:49.009Z,2.40
2022-12-23T22:06:17.789Z,3.17
2022-12-23T22:08:44.351Z,3.03
2022-12-23T22:11:20.701Z,3.38
2022-12-23T22:13:47.852Z,2.80
2022-12-23T22:16:21.473Z,2.65
2022-12-23T22:18:48.724Z,2.88
2022-12-23T22:21:18.821Z,2.28
2022-12-23T22:23:48.652Z,3.25
2022-12-23T22:26:24.200Z,3.38
2022-12-23T22:28:52.562Z,3.58
2022-12-23T22:31:36.171Z,2.58
2022-12-23T22:34:02.917Z,2.60
2022-12-23T22:36:29.620Z,2.50
2022-12-23T22:38:58.045Z,2.97
2022-12-23T22:41:27.744Z,2.55
2022-12-23T22:43:54.610Z,2.78
2022-12-23T22:46:21.245Z,2.88
2022-12-23T22:48:47.798Z,2.50
2022-12-23T22:51:23.614Z,2.97
2022-12-23T22:53:50.381Z,2.67
2022-12-23T22:56:19.363Z,2.90
2022-12-23T22:58:45.965Z,2.90
2022-12-23T23:01:26.161Z,2.83
2022-12-23T23:03:57.788Z,3.15
2022-12-23T23:06:29.828Z,1.98
2022-12-23T23:08:57.879Z,2.60
2022-12-23T23:11:26.459Z,2.65
2022-12-23T23:13:53.733Z,2.35
2022-12-23T23:16:20.275Z,2.35
2022-12-23T23:18:46.819Z,2.80
2022-12-23T23:21:14.589Z,2.78
2022-12-23T23:23:41.183Z,2.85
2022-12-23T23:26:10.069Z,2.88
2022-12-23T23:28:37.994Z,3.10
2022-12-23T23:31:39.849Z,2.60
2022-12-23T23:33:50.831Z,3.60
2022-12-23T23:36:17.403Z,2.80
2022-12-23T23:38:43.857Z,2.83
2022-12-23T23:41:10.242Z,2.80
2022-12-23T23:43:36.612Z,2.78
2022-12-23T23:46:03.136Z,2.75
2022-12-23T23:48:29.519Z,2.53
2022-12-23T23:51:03.953Z,2.80
2022-12-23T23:53:30.379Z,2.30
2022-12-23T23:56:06.022Z,2.72
2022-12-23T23:58:33.221Z,2.70
